Time;durP1;ratioP1;P1;durP2;ratioP2;P2;SDS_P1;SDS_P2;PMS_P1;PMS_P2;Temp;Humidity;BMP_temperature;BMP_pressure;BME280_temperature;BME280_humidity;BME280_pressure;Samples;Min_cycle;Max_cycle;Signal;HPM_P1;HPM_P2
2023/07/16 00:00:12;;;;;;;2.08;1.25;;;;;;;;;;4377458;32;66562;-58
2023/07/16 00:02:59;;;;;;;1.98;1.30;;;;;;;;;;4366003;32;59879;-59
2023/07/16 00:05:46;;;;;;;1.27;1.17;;;;;;;;;;4398494;32;70922;-58
2023/07/16 00:08:33;;;;;;;1.62;1.50;;;;;;;;;;4387996;32;69333;-59
2023/07/16 00:11:19;;;;;;;3.15;1.62;;;;;;;;;;4376841;32;68266;-59
2023/07/16 00:14:06;;;;;;;2.08;1.40;;;;;;;;;;4398555;32;71100;-58
2023/07/16 00:16:52;;;;;;;1.20;1.10;;;;;;;;;;4398655;32;65814;-58
2023/07/16 00:19:39;;;;;;;;;;;;;;;;;;4387773;32;67093;-59
2023/07/16 00:22:26;;;;;;;1.70;0.98;;;;;;;;;;4388243;32;60079;-58
2023/07/16 00:25:12;;;;;;;;;;;;;;;;;;4398721;32;69448;-58
2023/07/16 00:27:59;;;;;;;1.15;0.93;;;;;;;;;;4398660;32;66374;-59
2023/07/16 00:30:45;;;;;;;;;;;;;;;;;;4388205;32;67503;-59
2023/07/16 00:33:32;;;;;;;1.85;0.85;;;;;;;;;;4400080;32;59801;-59
2023/07/16 00:36:19;;;;;;;1.45;1.20;;;;;;;;;;4387640;32;69512;-59
2023/07/16 00:39:06;;;;;;;1.20;1.00;;;;;;;;;;4387781;32;69190;-59
2023/07/16 00:41:53;;;;;;;0.75;0.75;;;;;;;;;;4399770;32;67650;-58
2023/07/16 00:44:39;;;;;;;1.05;0.95;;;;;;;;;;4398129;32;71774;-59
2023/07/16 00:47:26;;;;;;;2.50;0.90;;;;;;;;;;4376616;32;65831;-59
2023/07/16 00:50:13;;;;;;;1.23;0.95;;;;;;;;;;4397900;32;68105;-58
2023/07/16 00:53:01;;;;;;;1.17;1.05;;;;;;;;;;4387444;32;67496;-59
2023/07/16 00:55:48;;;;;;;0.85;0.80;;;;;;;;;;4398161;32;70812;-59
2023/07/16 00:58:34;;;;;;;;;;;;;;;;;;4398451;32;65785;-59
2023/07/16 01:01:21;;;;;;;1.10;1.00;;;;;;;;;;4399488;32;67918;-58
2023/07/16 01:04:07;;;;;;;0.90;0.90;;;;;;;;;;4376986;32;59992;-58
2023/07/16 01:06:54;;;;;;;;;;;;;;;;;;4387649;32;70443;-58
2023/07/16 01:09:43;;;;;;;2.22;0.90;;;;;;;;;;4386651;32;69126;-59
2023/07/16 01:12:30;;;;;;;2.05;1.25;;;;;;;;;;4387518;32;67716;-59
2023/07/16 01:15:16;;;;;;;1.02;0.95;;;;;;;;;;4398129;32;60211;-58
2023/07/16 01:18:03;;;;;;;;;;;;;;;;;;4397600;32;71900;-58
2023/07/16 01:20:50;;;;;;;1.42;1.10;;;;;;;;;;4376771;32;69230;-59
2023/07/16 01:24:14;;;;;;;;;;;;;;;;;;4398107;32;67364;-59
2023/07/16 01:27:24;;;;;;;2.83;0.90;;;;;;;;;;4336038;32;71117;-58
2023/07/16 01:30:15;;;;;;;1.62;1.00;;;;;;;;;;4313227;32;65839;-58
2023/07/16 01:33:02;;;;;;;2.10;1.50;;;;;;;;;;4386300;32;67838;-58
2023/07/16 01:35:51;;;;;;;0.90;0.90;;;;;;;;;;4387285;32;59947;-58
2023/07/16 01:38:38;;;;;;;1.33;1.23;;;;;;;;;;4386808;32;70633;-59
2023/07/16 01:41:26;;;;;;;1.35;1.20;;;;;;;;;;4386972;32;65857;-59
2023/07/16 01:44:12;;;;;;;;;;;;;;;;;;4398014;32;67733;-59
2023/07/16 01:47:11;;;;;;;2.83;1.62;;;;;;;;;;4386940;32;59914;-59
2023/07/16 01:49:58;;;;;;;3.60;1.52;;;;;;;;;;4397584;32;70608;-59
2023/07/16 01:52:45;;;;;;;1.92;1.50;;;;;;;;;;4386987;32;68528;-59
2023/07/16 01:55:31;;;;;;;3.17;1.42;;;;;;;;;;4375896;32;67544;-59
2023/07/16 01:58:18;;;;;;;3.58;1.60;;;;;;;;;;4375367;32;71184;-60
2023/07/16 02:01:05;;;;;;;2.28;1.50;;;;;;;;;;4365633;32;64937;-59
2023/07/16 02:03:51;;;;;;;;;;;;;;;;;;4376517;32;67555;-60
2023/07/16 02:06:37;;;;;;;1.98;1.70;;;;;;;;;;4398815;32;67522;-59
2023/07/16 02:09:25;;;;;;;2.60;1.80;;;;;;;;;;4375226;32;69781;-59
2023/07/16 02:12:11;;;;;;;;;;;;;;;;;;4397714;32;65870;-59
2023/07/16 02:14:58;;;;;;;3.55;1.60;;;;;;;;;;4398685;32;67621;-58
2023/07/16 02:17:45;;;;;;;1.80;1.70;;;;;;;;;;4398803;32;60109;-59
2023/07/16 02:20:31;;;;;;;2.03;1.73;;;;;;;;;;4385549;32;71052;-58
2023/07/16 02:23:18;;;;;;;;;;;;;;;;;;4397592;32;69264;-59
2023/07/16 02:26:05;;;;;;;4.35;2.22;;;;;;;;;;4397351;32;68172;-58
2023/07/16 02:28:52;;;;;;;3.17;2.20;;;;;;;;;;4376050;32;71484;-58
2023/07/16 02:31:38;;;;;;;4.00;2.10;;;;;;;;;;4376179;32;69528;-59
2023/07/16 02:34:25;;;;;;;;;;;;;;;;;;4397326;32;69623;-59
2023/07/16 02:37:11;;;;;;;5.95;2.08;;;;;;;;;;4375872;32;67813;-59
2023/07/16 02:39:58;;;;;;;2.87;1.75;;;;;;;;;;4386129;32;71878;-58
2023/07/16 02:42:45;;;;;;;3.10;1.75;;;;;;;;;;4386256;32;66167;-58
2023/07/16 02:45:31;;;;;;;;;;;;;;;;;;4396897;32;67707;-59
2023/07/16 02:48:18;;;;;;;3.42;2.03;;;;;;;;;;4385746;32;60229;-58
2023/07/16 02:51:05;;;;;;;;;;;;;;;;;;4364754;32;70725;-59
2023/07/16 02:53:51;;;;;;;5.32;2.12;;;;;;;;;;4398085;32;68940;-59
2023/07/16 02:56:38;;;;;;;4.10;1.98;;;;;;;;;;4396968;32;67490;-58
2023/07/16 02:59:24;;;;;;;4.15;2.25;;;;;;;;;;4396849;32;60015;-58
2023/07/16 03:02:11;;;;;;;;;;;;;;;;;;4375689;32;70668;-58
2023/07/16 03:04:58;;;;;;;5.30;2.40;;;;;;;;;;4386148;32;69313;-59
2023/07/16 03:07:44;;;;;;;4.68;2.53;;;;;;;;;;4385979;32;67592;-59
2023/07/16 03:10:31;;;;;;;;;;;;;;;;;;4386260;32;71878;-58
2023/07/16 03:13:17;;;;;;;4.07;2.42;;;;;;;;;;4396951;32;65942;-58
2023/07/16 03:16:04;;;;;;;4.90;2.58;;;;;;;;;;4386147;32;67271;-59
2023/07/16 03:18:50;;;;;;;6.80;2.60;;;;;;;;;;4396803;32;60126;-59
2023/07/16 03:21:37;;;;;;;4.60;2.40;;;;;;;;;;4375243;32;71821;-59
2023/07/16 03:24:23;;;;;;;;;;;;;;;;;;4375678;32;66060;-57
2023/07/16 03:27:10;;;;;;;3.15;2.35;;;;;;;;;;4385232;32;66854;-59
2023/07/16 03:29:57;;;;;;;7.45;2.97;;;;;;;;;;4375402;32;59082;-58
2023/07/16 03:32:44;;;;;;;5.72;2.70;;;;;;;;;;4364418;32;71405;-59
2023/07/16 03:35:30;;;;;;;3.08;2.40;;;;;;;;;;4377605;32;68474;-58
2023/07/16 03:38:17;;;;;;;4.10;2.53;;;;;;;;;;4399001;32;66816;-58
2023/07/16 03:41:04;;;;;;;2.90;2.28;;;;;;;;;;4377897;32;70735;-59
2023/07/16 03:43:52;;;;;;;4.10;2.55;;;;;;;;;;4377734;32;70497;-58
2023/07/16 03:46:38;;;;;;;;;;;;;;;;;;4398401;32;68198;-58
2023/07/16 03:49:25;;;;;;;3.65;2.53;;;;;;;;;;4377099;32;68366;-58
2023/07/16 03:52:12;;;;;;;3.35;2.50;;;;;;;;;;4377359;32;72019;-58
2023/07/16 03:54:58;;;;;;;;;;;;;;;;;;4377129;32;66662;-58
2023/07/16 03:57:44;;;;;;;4.50;2.58;;;;;;;;;;4387653;32;68831;-60
2023/07/16 04:00:31;;;;;;;;;;;;;;;;;;4388122;32;59971;-58
2023/07/16 04:03:18;;;;;;;4.82;3.25;;;;;;;;;;4398391;32;70905;-59
2023/07/16 04:06:06;;;;;;;5.45;2.50;;;;;;;;;;4387468;32;69984;-59
2023/07/16 04:08:53;;;;;;;4.15;2.65;;;;;;;;;;4376500;32;68119;-59
2023/07/16 04:11:39;;;;;;;5.62;2.60;;;;;;;;;;4387306;32;61002;-59
2023/07/16 04:14:26;;;;;;;4.43;2.83;;;;;;;;;;4387695;32;70408;-59
2023/07/16 04:17:12;;;;;;;4.37;2.80;;;;;;;;;;4398582;32;69738;-59
2023/07/16 04:19:59;;;;;;;3.75;2.70;;;;;;;;;;4387283;32;68757;-59
2023/07/16 04:22:46;;;;;;;4.95;2.90;;;;;;;;;;4376932;32;71693;-59
2023/07/16 04:25:33;;;;;;;2.80;2.50;;;;;;;;;;4366264;32;64788;-59
2023/07/16 04:28:19;;;;;;;;;;;;;;;;;;4398928;32;67902;-58
2023/07/16 04:31:06;;;;;;;4.70;3.00;;;;;;;;;;4387658;32;59235;-58
2023/07/16 04:33:54;;;;;;;5.68;3.00;;;;;;;;;;4376889;32;71593;-59
2023/07/16 04:36:41;;;;;;;4.50;3.00;;;;;;;;;;4387738;32;65481;-59
2023/07/16 04:39:28;;;;;;;7.25;3.12;;;;;;;;;;4398377;32;68157;-59
2023/07/16 04:42:16;;;;;;;3.20;2.42;;;;;;;;;;4387166;32;59666;-58
2023/07/16 04:45:04;;;;;;;4.97;2.75;;;;;;;;;;4376699;32;71154;-59
2023/07/16 04:47:50;;;;;;;3.85;2.60;;;;;;;;;;4387199;32;69330;-58
2023/07/16 04:50:37;;;;;;;4.65;2.75;;;;;;;;;;4376750;32;66736;-59
2023/07/16 04:53:24;;;;;;;;;;;;;;;;;;4377084;32;71607;-59
2023/07/16 04:56:14;;;;;;;5.40;2.45;;;;;;;;;;4387855;32;65569;-59
2023/07/16 04:59:00;;;;;;;4.22;2.55;;;;;;;;;;4376693;32;68319;-58
2023/07/16 05:01:47;;;;;;;4.65;2.70;;;;;;;;;;4376192;32;68534;-57
2023/07/16 05:04:34;;;;;;;;;;;;;;;;;;4400438;32;72055;-59
2023/07/16 05:07:21;;;;;;;3.55;2.30;;;;;;;;;;4377332;32;66135;-58
2023/07/16 05:10:08;;;;;;;4.28;2.75;;;;;;;;;;4375889;32;68318;-59
2023/07/16 05:12:55;;;;;;;3.80;2.78;;;;;;;;;;4387584;32;59162;-58
2023/07/16 05:15:45;;;;;;;5.03;2.50;;;;;;;;;;4387075;32;70725;-59
2023/07/16 05:18:31;;;;;;;4.37;2.70;;;;;;;;;;4375879;32;69032;-59
2023/07/16 05:21:17;;;;;;;3.28;2.10;;;;;;;;;;4386571;32;67403;-58
2023/07/16 05:24:05;;;;;;;4.45;2.22;;;;;;;;;;4397960;32;59075;-59
2023/07/16 05:26:54;;;;;;;6.72;2.87;;;;;;;;;;4387394;32;70547;-59
2023/07/16 05:29:40;;;;;;;4.95;2.67;;;;;;;;;;4376550;32;68284;-58
2023/07/16 05:32:27;;;;;;;;;;;;;;;;;;4387404;32;67681;-60
2023/07/16 05:35:13;;;;;;;3.37;2.67;;;;;;;;;;4397787;32;71161;-59
2023/07/16 05:38:00;;;;;;;4.10;2.62;;;;;;;;;;4398983;32;65729;-59
2023/07/16 05:40:46;;;;;;;6.15;2.78;;;;;;;;;;4397505;32;67070;-59
2023/07/16 05:43:33;;;;;;;3.62;3.00;;;;;;;;;;4397845;32;60398;-59
2023/07/16 05:46:19;;;;;;;;;;;;;;;;;;4376320;32;69466;-61
2023/07/16 05:49:06;;;;;;;5.53;3.20;;;;;;;;;;4398217;32;66020;-59
2023/07/16 05:51:54;;;;;;;;;;;;;;;;;;4376917;32;67548;-59
2023/07/16 05:54:40;;;;;;;5.95;2.53;;;;;;;;;;4399049;32;59629;-59
2023/07/16 05:57:27;;;;;;;4.40;2.37;;;;;;;;;;4398580;32;71384;-59
2023/07/16 06:00:14;;;;;;;3.95;2.90;;;;;;;;;;4399168;32;68347;-59
2023/07/16 06:03:05;;;;;;;4.43;2.95;;;;;;;;;;4397428;32;68006;-59
2023/07/16 06:05:52;;;;;;;5.82;3.10;;;;;;;;;;4385953;32;71430;-59
2023/07/16 06:08:38;;;;;;;;;;;;;;;;;;4376441;32;66085;-59
2023/07/16 06:11:24;;;;;;;4.90;2.70;;;;;;;;;;4398599;32;69209;-59
2023/07/16 06:14:11;;;;;;;5.00;2.83;;;;;;;;;;4398293;32;68005;-60
2023/07/16 06:16:57;;;;;;;6.28;2.78;;;;;;;;;;4375139;32;71298;-58
2023/07/16 06:19:44;;;;;;;5.20;2.80;;;;;;;;;;4375482;32;66896;-59
2023/07/16 06:22:30;;;;;;;7.32;3.17;;;;;;;;;;4397054;32;67730;-59
2023/07/16 06:25:17;;;;;;;;;;;;;;;;;;4397729;32;60413;-58
2023/07/16 06:28:04;;;;;;;4.68;2.53;;;;;;;;;;4375815;32;70126;-59
2023/07/16 06:30:54;;;;;;;6.00;2.53;;;;;;;;;;4386169;32;69321;-59
2023/07/16 06:33:40;;;;;;;3.65;2.83;;;;;;;;;;4386653;32;68101;-59
2023/07/16 06:36:27;;;;;;;5.22;2.75;;;;;;;;;;4398463;32;59248;-59
2023/07/16 06:39:13;;;;;;;4.05;2.58;;;;;;;;;;4385162;32;71397;-59
2023/07/16 06:42:00;;;;;;;5.22;3.30;;;;;;;;;;4398085;32;69306;-58
2023/07/16 06:44:47;;;;;;;4.95;3.00;;;;;;;;;;4375316;32;68139;-59
2023/07/16 06:47:33;;;;;;;4.68;2.80;;;;;;;;;;4363949;32;71347;-59
2023/07/16 06:50:20;;;;;;;5.97;3.17;;;;;;;;;;4396437;32;66765;-59
2023/07/16 06:53:06;;;;;;;4.70;3.05;;;;;;;;;;4386172;32;67488;-59
2023/07/16 06:55:53;;;;;;;5.90;2.87;;;;;;;;;;4385956;32;60224;-58
2023/07/16 06:58:40;;;;;;;4.12;2.97;;;;;;;;;;4385327;32;71100;-59
2023/07/16 07:01:27;;;;;;;;;;;;;;;;;;4375831;32;65071;-58
2023/07/16 07:04:14;;;;;;;3.95;2.92;;;;;;;;;;4386235;32;67753;-58
2023/07/16 07:07:01;;;;;;;;;;;;;;;;;;4397427;32;60726;-59
2023/07/16 07:09:50;;;;;;;3.55;2.60;;;;;;;;;;4387898;32;70606;-59
2023/07/16 07:12:37;;;;;;;4.37;2.78;;;;;;;;;;4387930;32;70348;-59
2023/07/16 07:15:24;;;;;;;3.37;2.50;;;;;;;;;;4388745;32;67669;-58
2023/07/16 07:18:10;;;;;;;;;;;;;;;;;;4378144;32;71640;-58
2023/07/16 07:20:57;;;;;;;2.65;2.37;;;;;;;;;;4399409;32;66158;-63
2023/07/16 07:23:44;;;;;;;3.37;2.35;;;;;;;;;;4366879;32;66653;-59
2023/07/16 07:26:30;;;;;;;2.92;2.33;;;;;;;;;;4399576;32;67731;-59
2023/07/16 07:29:17;;;;;;;3.28;2.60;;;;;;;;;;4400027;32;71855;-58
2023/07/16 07:32:04;;;;;;;4.18;2.42;;;;;;;;;;4388445;32;66115;-58
2023/07/16 07:34:50;;;;;;;;;;;;;;;;;;4399502;32;68022;-58
2023/07/16 07:37:37;;;;;;;3.37;1.70;;;;;;;;;;4400485;32;59122;-58
2023/07/16 07:40:23;;;;;;;;;;;;;;;;;;4388575;32;70457;-57
2023/07/16 07:43:10;;;;;;;4.65;2.50;;;;;;;;;;4399181;32;69870;-59
2023/07/16 07:45:57;;;;;;;3.25;2.50;;;;;;;;;;4387617;32;68242;-58
2023/07/16 07:48:43;;;;;;;3.33;2.33;;;;;;;;;;4400303;32;71718;-58
2023/07/16 07:51:30;;;;;;;4.65;2.55;;;;;;;;;;4388080;32;70502;-58
2023/07/16 07:54:16;;;;;;;5.07;2.80;;;;;;;;;;4398042;32;69647;-58
2023/07/16 07:57:06;;;;;;;4.30;2.40;;;;;;;;;;4377624;32;67713;-58
2023/07/16 07:59:57;;;;;;;7.20;2.80;;;;;;;;;;4377513;32;71703;-58
2023/07/16 08:02:43;;;;;;;6.10;2.75;;;;;;;;;;4377136;32;66007;-59
2023/07/16 08:05:29;;;;;;;;;;;;;;;;;;4388560;32;66918;-59
2023/07/16 08:08:15;;;;;;;4.25;2.20;;;;;;;;;;4399086;32;59419;-58
2023/07/16 08:11:02;;;;;;;3.53;2.12;;;;;;;;;;4398426;32;70479;-58
2023/07/16 08:13:49;;;;;;;3.67;2.40;;;;;;;;;;4377239;32;68321;-58
2023/07/16 08:16:36;;;;;;;3.30;2.50;;;;;;;;;;4387989;32;67189;-59
2023/07/16 08:19:22;;;;;;;4.22;2.60;;;;;;;;;;4377011;32;60108;-58
2023/07/16 08:22:09;;;;;;;4.05;2.55;;;;;;;;;;4387055;32;70239;-59
2023/07/16 08:27:34;;;;;;;3.55;2.40;;;;;;;;;;3846198;37;43349;-57
2023/07/16 08:30:21;;;;;;;4.80;2.42;;;;;;;;;;4399607;32;59963;-58
2023/07/16 08:33:08;;;;;;;4.37;2.60;;;;;;;;;;4399069;32;70562;-58
2023/07/16 08:35:54;;;;;;;4.35;2.65;;;;;;;;;;4409592;32;68446;-58
2023/07/16 08:38:41;;;;;;;3.22;2.28;;;;;;;;;;4398255;32;68718;-59
2023/07/16 08:41:27;;;;;;;;;;;;;;;;;;4411187;32;71165;-58
2023/07/16 08:44:14;;;;;;;2.97;2.53;;;;;;;;;;4377247;32;66071;-60
2023/07/16 08:49:40;;;;;;;4.00;2.60;;;;;;;;;;3846018;37;43752;-58
2023/07/16 08:52:28;;;;;;;3.58;2.40;;;;;;;;;;4388197;32;59650;-59
2023/07/16 08:55:15;;;;;;;3.60;2.70;;;;;;;;;;4394357;32;69640;-60
2023/07/16 08:58:01;;;;;;;;;;;;;;;;;;4394734;32;68874;-59
2023/07/16 09:00:49;;;;;;;3.97;2.27;;;;;;;;;;4383846;32;66907;-60
2023/07/16 09:03:36;;;;;;;6.82;2.40;;;;;;;;;;4393782;32;72277;-59
2023/07/16 09:06:22;;;;;;;;;;;;;;;;;;4372906;32;66906;-58
2023/07/16 09:09:12;;;;;;;3.58;2.30;;;;;;;;;;4395838;32;66447;-59
2023/07/16 09:11:59;;;;;;;4.65;2.00;;;;;;;;;;4395050;32;59888;-59
2023/07/16 09:14:46;;;;;;;3.45;2.33;;;;;;;;;;4394538;32;70781;-59
2023/07/16 09:17:35;;;;;;;3.80;2.60;;;;;;;;;;4394568;32;65647;-58
2023/07/16 09:20:25;;;;;;;4.18;2.33;;;;;;;;;;4372582;32;68487;-58
2023/07/16 09:23:12;;;;;;;3.03;2.33;;;;;;;;;;4383507;32;60903;-59
2023/07/16 09:25:58;;;;;;;3.10;2.20;;;;;;;;;;4394765;32;69548;-59
2023/07/16 09:28:49;;;;;;;4.68;2.28;;;;;;;;;;4394990;32;69676;-59
2023/07/16 09:31:36;;;;;;;4.80;2.50;;;;;;;;;;4395081;32;67677;-59
2023/07/16 09:34:22;;;;;;;3.25;2.55;;;;;;;;;;4395887;32;71800;-59
2023/07/16 09:37:09;;;;;;;3.55;2.30;;;;;;;;;;4396809;32;64811;-60
2023/07/16 09:39:56;;;;;;;3.17;2.60;;;;;;;;;;4385983;32;69463;-58
2023/07/16 09:42:43;;;;;;;2.58;2.20;;;;;;;;;;4396476;32;67449;-59
2023/07/16 09:45:29;;;;;;;4.15;2.03;;;;;;;;;;4387842;32;70879;-58
2023/07/16 09:48:16;;;;;;;2.87;2.20;;;;;;;;;;4400670;32;65199;-59
2023/07/16 09:51:02;;;;;;;5.93;3.15;;;;;;;;;;4389421;32;68421;-61
2023/07/16 09:53:51;;;;;;;3.58;2.33;;;;;;;;;;4395078;32;60278;-58
2023/07/16 09:56:43;;;;;;;3.10;2.03;;;;;;;;;;4395373;32;69879;-59
2023/07/16 09:59:30;;;;;;;3.70;1.98;;;;;;;;;;4397082;32;70033;-58
2023/07/16 10:02:17;;;;;;;3.05;2.10;;;;;;;;;;4395322;32;66689;-59
2023/07/16 10:05:18;;;;;;;3.42;2.20;;;;;;;;;;4393258;32;58994;-59
2023/07/16 10:08:05;;;;;;;3.00;2.08;;;;;;;;;;4385273;32;70715;-58
2023/07/16 10:10:59;;;;;;;2.22;2.03;;;;;;;;;;4383595;32;69398;-59
2023/07/16 10:13:52;;;;;;;2.20;2.00;;;;;;;;;;4372487;32;68131;-59
2023/07/16 10:16:40;;;;;;;2.92;2.45;;;;;;;;;;4372212;32;71440;-58
2023/07/16 10:19:26;;;;;;;4.93;2.28;;;;;;;;;;4372789;32;65897;-60
2023/07/16 10:22:13;;;;;;;4.28;2.03;;;;;;;;;;4384674;32;66728;-59
2023/07/16 10:25:00;;;;;;;2.50;2.12;;;;;;;;;;4383443;32;59112;-58
2023/07/16 10:27:49;;;;;;;3.30;2.47;;;;;;;;;;4393618;32;69494;-59
2023/07/16 10:30:35;;;;;;;3.37;2.47;;;;;;;;;;4372348;32;66674;-59
2023/07/16 10:33:22;;;;;;;3.47;2.30;;;;;;;;;;4372587;32;67461;-59
2023/07/16 10:36:09;;;;;;;;;;;;;;;;;;4383751;32;60150;-57
2023/07/16 10:39:02;;;;;;;2.20;2.00;;;;;;;;;;4383462;32;69230;-59
2023/07/16 10:41:50;;;;;;;3.53;2.30;;;;;;;;;;4372231;32;69868;-59
2023/07/16 10:44:36;;;;;;;3.53;2.10;;;;;;;;;;4371638;32;68397;-59
2023/07/16 10:47:23;;;;;;;;;;;;;;;;;;4384323;32;71885;-57
2023/07/16 10:50:10;;;;;;;3.53;2.20;;;;;;;;;;4384637;32;64918;-59
2023/07/16 10:52:57;;;;;;;3.65;2.90;;;;;;;;;;4372578;32;68145;-59
2023/07/16 10:55:44;;;;;;;2.80;2.15;;;;;;;;;;4383957;32;67676;-58
2023/07/16 10:58:30;;;;;;;;;;;;;;;;;;4361334;32;69753;-58
2023/07/16 11:01:17;;;;;;;3.13;2.53;;;;;;;;;;4372633;32;66176;-59
2023/07/16 11:04:08;;;;;;;3.25;1.80;;;;;;;;;;4371967;32;68600;-59
2023/07/16 11:06:54;;;;;;;4.30;3.05;;;;;;;;;;4371588;32;60722;-58
2023/07/16 11:09:47;;;;;;;3.37;2.20;;;;;;;;;;4371419;32;71197;-58
2023/07/16 11:12:34;;;;;;;3.80;2.83;;;;;;;;;;4392743;32;69280;-59
2023/07/16 11:15:32;;;;;;;5.00;2.47;;;;;;;;;;4393404;32;67895;-59
2023/07/16 11:18:19;;;;;;;2.53;1.90;;;;;;;;;;4382864;32;60265;-59
2023/07/16 11:21:06;;;;;;;5.80;2.53;;;;;;;;;;4381849;32;70249;-59
2023/07/16 11:23:52;;;;;;;3.97;2.17;;;;;;;;;;4381610;32;69490;-58
2023/07/16 11:26:39;;;;;;;5.15;2.12;;;;;;;;;;4371745;32;67799;-59
2023/07/16 11:29:26;;;;;;;5.07;2.30;;;;;;;;;;4382249;32;71814;-58
2023/07/16 11:32:13;;;;;;;;;;;;;;;;;;4382951;32;66304;-58
2023/07/16 11:35:02;;;;;;;1.90;1.70;;;;;;;;;;4383795;32;66810;-58
2023/07/16 11:37:49;;;;;;;4.00;2.05;;;;;;;;;;4382857;32;60170;-59
2023/07/16 11:40:36;;;;;;;2.92;1.83;;;;;;;;;;4371701;32;69657;-58
2023/07/16 11:43:23;;;;;;;3.28;1.77;;;;;;;;;;4382258;32;64861;-58
2023/07/16 11:46:16;;;;;;;3.67;2.05;;;;;;;;;;4382333;32;67767;-59
2023/07/16 11:49:03;;;;;;;2.47;1.73;;;;;;;;;;4382064;32;60400;-58
2023/07/16 11:51:51;;;;;;;2.70;1.90;;;;;;;;;;4360349;32;70792;-59
2023/07/16 11:54:37;;;;;;;3.62;2.20;;;;;;;;;;4382124;32;68409;-59
2023/07/16 11:57:23;;;;;;;;;;;;;;;;;;4393154;32;67845;-59
2023/07/16 12:00:11;;;;;;;2.05;1.85;;;;;;;;;;4392858;32;71654;-59
2023/07/16 12:02:58;;;;;;;2.83;1.98;;;;;;;;;;4382183;32;65005;-59
2023/07/16 12:05:44;;;;;;;;;;;;;;;;;;4382614;32;66493;-58
2023/07/16 12:08:31;;;;;;;4.43;2.30;;;;;;;;;;4370904;32;68374;-59
2023/07/16 12:11:18;;;;;;;2.33;1.90;;;;;;;;;;4359904;32;72234;-58
2023/07/16 12:14:05;;;;;;;;;;;;;;;;;;4382303;32;65033;-58
2023/07/16 12:16:51;;;;;;;4.75;2.22;;;;;;;;;;4360900;32;66801;-59
2023/07/16 12:19:38;;;;;;;;;;;;;;;;;;4381951;32;60396;-58
2023/07/16 12:22:25;;;;;;;2.42;1.95;;;;;;;;;;4371201;32;69485;-59
2023/07/16 12:25:11;;;;;;;2.45;2.00;;;;;;;;;;4392291;32;68385;-59
2023/07/16 12:27:58;;;;;;;;;;;;;;;;;;4382285;32;67660;-58
2023/07/16 12:30:45;;;;;;;4.18;2.17;;;;;;;;;;4382182;32;71075;-58
2023/07/16 12:33:31;;;;;;;3.67;2.47;;;;;;;;;;4370806;32;70748;-59
2023/07/16 12:36:19;;;;;;;5.30;2.47;;;;;;;;;;4381692;32;69266;-59
2023/07/16 12:39:05;;;;;;;3.17;2.20;;;;;;;;;;4370330;32;67389;-59
2023/07/16 12:41:51;;;;;;;4.57;2.95;;;;;;;;;;4382703;32;70811;-59
2023/07/16 12:44:38;;;;;;;3.95;3.10;;;;;;;;;;4392538;32;65031;-59
2023/07/16 12:47:24;;;;;;;3.00;2.37;;;;;;;;;;4359842;32;68026;-59
2023/07/16 12:50:11;;;;;;;3.40;2.62;;;;;;;;;;4382715;32;59108;-59
2023/07/16 12:52:58;;;;;;;4.60;2.95;;;;;;;;;;4370026;32;71346;-59
2023/07/16 12:55:44;;;;;;;5.97;3.08;;;;;;;;;;4382818;32;69293;-59
2023/07/16 12:58:32;;;;;;;5.62;3.25;;;;;;;;;;4381702;32;67450;-59
2023/07/16 13:01:18;;;;;;;5.15;3.42;;;;;;;;;;4381404;32;61110;-58
2023/07/16 13:04:05;;;;;;;5.82;3.28;;;;;;;;;;4370615;32;70546;-58
2023/07/16 13:06:52;;;;;;;;;;;;;;;;;;4370917;32;69258;-59
2023/07/16 13:09:39;;;;;;;5.95;2.80;;;;;;;;;;4370913;32;67605;-58
2023/07/16 13:12:25;;;;;;;3.67;2.60;;;;;;;;;;4380635;32;72217;-58
2023/07/16 13:15:12;;;;;;;3.17;2.50;;;;;;;;;;4370564;32;66795;-58
2023/07/16 13:17:59;;;;;;;;;;;;;;;;;;4370716;32;66467;-58
2023/07/16 13:20:45;;;;;;;4.03;2.50;;;;;;;;;;4381762;32;59811;-59
2023/07/16 13:23:32;;;;;;;4.90;2.35;;;;;;;;;;4370433;32;71809;-59
2023/07/16 13:26:19;;;;;;;4.68;3.20;;;;;;;;;;4370756;32;66089;-59
2023/07/16 13:29:05;;;;;;;;;;;;;;;;;;4382773;32;68277;-59
2023/07/16 13:31:52;;;;;;;3.95;2.70;;;;;;;;;;4381552;32;59497;-59
2023/07/16 13:34:38;;;;;;;4.93;2.90;;;;;;;;;;4371217;32;71005;-58
2023/07/16 13:37:25;;;;;;;4.35;2.95;;;;;;;;;;4383249;32;68875;-58
2023/07/16 13:40:12;;;;;;;;;;;;;;;;;;4362126;32;68814;-58
2023/07/16 13:42:59;;;;;;;4.05;2.67;;;;;;;;;;4373231;32;71654;-58
2023/07/16 13:45:45;;;;;;;;;;;;;;;;;;4373314;32;70642;-58
2023/07/16 13:48:32;;;;;;;3.83;2.37;;;;;;;;;;4372686;32;69778;-59
2023/07/16 13:51:18;;;;;;;;;;;;;;;;;;4383852;32;66661;-59
2023/07/16 13:54:05;;;;;;;6.05;3.20;;;;;;;;;;4384756;32;71929;-58
2023/07/16 13:56:52;;;;;;;4.10;2.85;;;;;;;;;;4383537;32;66070;-60
2023/07/16 13:59:38;;;;;;;4.65;3.25;;;;;;;;;;4383617;32;67248;-59
2023/07/16 14:02:25;;;;;;;;;;;;;;;;;;4384006;32;60661;-58
2023/07/16 14:05:11;;;;;;;4.68;3.17;;;;;;;;;;4383464;32;69308;-59
2023/07/16 14:07:58;;;;;;;4.10;3.20;;;;;;;;;;4383325;32;69411;-59
2023/07/16 14:10:45;;;;;;;4.57;3.30;;;;;;;;;;4372131;32;68176;-59
2023/07/16 14:13:32;;;;;;;5.18;3.60;;;;;;;;;;4372536;32;57054;-59
2023/07/16 14:16:19;;;;;;;4.28;3.33;;;;;;;;;;4361455;32;71611;-59
2023/07/16 14:19:06;;;;;;;4.20;3.10;;;;;;;;;;4383176;32;69238;-58
2023/07/16 14:21:53;;;;;;;3.83;2.75;;;;;;;;;;4393779;32;67433;-59
2023/07/16 14:24:39;;;;;;;;;;;;;;;;;;4372423;32;69491;-58
2023/07/16 14:27:26;;;;;;;4.43;3.10;;;;;;;;;;4383397;32;66217;-58
2023/07/16 14:30:13;;;;;;;;;;;;;;;;;;4394004;32;66939;-59
2023/07/16 14:33:01;;;;;;;3.23;2.90;;;;;;;;;;4383071;32;60365;-58
2023/07/16 14:35:48;;;;;;;3.60;2.72;;;;;;;;;;4372431;32;70823;-59
2023/07/16 14:38:35;;;;;;;5.97;3.35;;;;;;;;;;4372543;32;66040;-59
2023/07/16 14:41:21;;;;;;;3.90;2.95;;;;;;;;;;4383090;32;67798;-59
2023/07/16 14:44:09;;;;;;;4.37;3.00;;;;;;;;;;4372633;32;59885;-58
2023/07/16 14:46:55;;;;;;;;;;;;;;;;;;4383028;32;70573;-58
2023/07/16 14:49:42;;;;;;;5.07;3.50;;;;;;;;;;4384043;32;69359;-59
2023/07/16 14:52:28;;;;;;;4.65;3.20;;;;;;;;;;4372208;32;66696;-58
2023/07/16 14:55:15;;;;;;;5.00;3.30;;;;;;;;;;4382534;32;71647;-59
2023/07/16 14:58:02;;;;;;;5.30;2.90;;;;;;;;;;4372472;32;65075;-58
2023/07/16 15:00:49;;;;;;;4.55;2.72;;;;;;;;;;4382718;32;68331;-58
2023/07/16 15:03:37;;;;;;;3.90;2.50;;;;;;;;;;4383915;32;67863;-59
2023/07/16 15:06:24;;;;;;;3.78;2.50;;;;;;;;;;4393293;32;71535;-58
2023/07/16 15:09:13;;;;;;;4.35;2.80;;;;;;;;;;4381891;32;65937;-59
2023/07/16 15:12:00;;;;;;;3.12;2.17;;;;;;;;;;4393336;32;67931;-59
2023/07/16 15:14:46;;;;;;;;;;;;;;;;;;4383288;32;60018;-58
2023/07/16 15:17:33;;;;;;;2.67;2.47;;;;;;;;;;4383934;32;69866;-59
2023/07/16 15:20:20;;;;;;;6.18;2.40;;;;;;;;;;4371145;32;66813;-58
2023/07/16 15:23:07;;;;;;;4.05;2.60;;;;;;;;;;4382541;32;67684;-58
2023/07/16 15:25:55;;;;;;;4.35;2.28;;;;;;;;;;4382683;32;59944;-59
2023/07/16 15:28:43;;;;;;;3.15;2.10;;;;;;;;;;4393189;32;70455;-58
2023/07/16 15:31:29;;;;;;;4.22;2.80;;;;;;;;;;4382349;32;69575;-59
2023/07/16 15:34:16;;;;;;;3.22;2.53;;;;;;;;;;4371824;32;67689;-59
2023/07/16 15:37:05;;;;;;;4.57;3.00;;;;;;;;;;4381531;32;70241;-58
2023/07/16 15:39:52;;;;;;;3.78;2.72;;;;;;;;;;4382468;32;64882;-59
2023/07/16 15:42:38;;;;;;;;;;;;;;;;;;4382065;32;67442;-59
2023/07/16 15:45:25;;;;;;;3.55;2.50;;;;;;;;;;4382686;32;59754;-59
2023/07/16 15:48:12;;;;;;;5.47;2.70;;;;;;;;;;4371029;32;70579;-59
2023/07/16 15:50:59;;;;;;;3.78;2.70;;;;;;;;;;4392679;32;65982;-59
2023/07/16 15:53:46;;;;;;;2.45;1.98;;;;;;;;;;4360901;32;66886;-59
2023/07/16 15:56:33;;;;;;;3.35;2.10;;;;;;;;;;4382436;32;60545;-59
2023/07/16 15:59:19;;;;;;;3.22;2.10;;;;;;;;;;4371133;32;70173;-58
2023/07/16 16:02:06;;;;;;;5.07;2.90;;;;;;;;;;4382150;32;68377;-59
2023/07/16 16:04:53;;;;;;;3.45;2.53;;;;;;;;;;4371627;32;67567;-59
2023/07/16 16:07:44;;;;;;;3.45;2.50;;;;;;;;;;4370370;32;72639;-58
2023/07/16 16:10:31;;;;;;;4.55;2.80;;;;;;;;;;4371291;32;65442;-58
2023/07/16 16:13:18;;;;;;;3.28;2.60;;;;;;;;;;4382015;32;69612;-59
2023/07/16 16:16:05;;;;;;;3.25;2.35;;;;;;;;;;4381989;32;66859;-59
2023/07/16 16:18:52;;;;;;;4.43;2.42;;;;;;;;;;4392735;32;71257;-58
2023/07/16 16:21:39;;;;;;;3.03;2.22;;;;;;;;;;4382324;32;64909;-59
2023/07/16 16:27:09;;;;;;;3.22;2.30;;;;;;;;;;3869185;36;43457;-58
2023/07/16 16:29:57;;;;;;;4.32;2.50;;;;;;;;;;4414883;32;60476;-59
2023/07/16 16:32:44;;;;;;;3.40;2.37;;;;;;;;;;4414313;32;69621;-59
2023/07/16 16:35:41;;;;;;;1.85;1.73;;;;;;;;;;4392783;32;69433;-59
2023/07/16 16:38:27;;;;;;;3.42;2.53;;;;;;;;;;4414261;32;66554;-59
2023/07/16 16:41:14;;;;;;;;;;;;;;;;;;4403686;32;71995;-58
2023/07/16 16:44:00;;;;;;;6.95;2.58;;;;;;;;;;4403741;32;65399;-58
2023/07/16 16:46:47;;;;;;;3.28;2.35;;;;;;;;;;4403529;32;67367;-58
2023/07/16 16:49:34;;;;;;;;;;;;;;;;;;4393257;32;60178;-59
2023/07/16 16:52:21;;;;;;;2.77;2.00;;;;;;;;;;4400744;32;72266;-59
2023/07/16 16:55:07;;;;;;;;;;;;;;;;;;4392949;32;64938;-58
2023/07/16 16:57:54;;;;;;;3.30;2.13;;;;;;;;;;4400814;32;68003;-59
2023/07/16 17:00:41;;;;;;;3.67;2.47;;;;;;;;;;4400992;32;60577;-59
2023/07/16 17:03:28;;;;;;;4.10;2.55;;;;;;;;;;4413907;32;69537;-59
2023/07/16 17:06:14;;;;;;;;;;;;;;;;;;4403256;32;68362;-59
2023/07/16 17:09:01;;;;;;;4.07;2.30;;;;;;;;;;4411304;32;68434;-59
2023/07/16 17:11:47;;;;;;;;;;;;;;;;;;4400935;32;72186;-57